sensor_id;sensor_type;location;lat;lon;timestamp;temperature;humidity
22379;DHT22;11357;49.990;7.370;2023-04-21T00:02:04;9.70;88.10
22379;DHT22;11357;49.990;7.370;2023-04-21T00:04:30;9.60;88.20
22379;DHT22;11357;49.990;7.370;2023-04-21T00:06:57;9.60;88.40
22379;DHT22;11357;49.990;7.370;2023-04-21T00:09:26;9.60;88.60
22379;DHT22;11357;49.990;7.370;2023-04-21T00:11:52;9.50;88.70
22379;DHT22;11357;49.990;7.370;2023-04-21T00:14:17;9.50;88.90
22379;DHT22;11357;49.990;7.370;2023-04-21T00:16:43;9.50;89.00
22379;DHT22;11357;49.990;7.370;2023-04-21T00:19:09;9.60;89.10
22379;DHT22;11357;49.990;7.370;2023-04-21T00:21:35;9.60;89.30
22379;DHT22;11357;49.990;7.370;2023-04-21T00:24:01;9.50;89.20
22379;DHT22;11357;49.990;7.370;2023-04-21T00:26:26;9.60;89.30
22379;DHT22;11357;49.990;7.370;2023-04-21T00:28:52;9.50;89.40
22379;DHT22;11357;49.990;7.370;2023-04-21T00:31:17;9.50;89.60
22379;DHT22;11357;49.990;7.370;2023-04-21T00:33:43;9.60;89.60
22379;DHT22;11357;49.990;7.370;2023-04-21T00:36:09;9.60;89.60
22379;DHT22;11357;49.990;7.370;2023-04-21T00:38:34;9.60;89.60
22379;DHT22;11357;49.990;7.370;2023-04-21T00:41:00;9.60;89.70
22379;DHT22;11357;49.990;7.370;2023-04-21T00:43:26;9.60;89.60
22379;DHT22;11357;49.990;7.370;2023-04-21T00:45:52;9.70;89.60
22379;DHT22;11357;49.990;7.370;2023-04-21T00:48:18;9.70;89.60
22379;DHT22;11357;49.990;7.370;2023-04-21T00:50:44;9.70;89.50
22379;DHT22;11357;49.990;7.370;2023-04-21T00:53:10;9.80;89.50
22379;DHT22;11357;49.990;7.370;2023-04-21T00:55:36;9.80;89.50
22379;DHT22;11357;49.990;7.370;2023-04-21T00:58:02;9.80;89.40
22379;DHT22;11357;49.990;7.370;2023-04-21T01:00:28;9.80;89.30
22379;DHT22;11357;49.990;7.370;2023-04-21T01:02:54;9.80;89.30
22379;DHT22;11357;49.990;7.370;2023-04-21T01:05:21;9.90;89.40
22379;DHT22;11357;49.990;7.370;2023-04-21T01:07:47;9.90;89.40
22379;DHT22;11357;49.990;7.370;2023-04-21T01:10:13;9.90;89.40
22379;DHT22;11357;49.990;7.370;2023-04-21T01:12:46;9.90;89.50
22379;DHT22;11357;49.990;7.370;2023-04-21T01:15:14;9.90;89.50
22379;DHT22;11357;49.990;7.370;2023-04-21T01:17:40;9.90;89.40
22379;DHT22;11357;49.990;7.370;2023-04-21T01:20:11;9.90;89.40
22379;DHT22;11357;49.990;7.370;2023-04-21T01:22:38;9.90;89.30
22379;DHT22;11357;49.990;7.370;2023-04-21T01:25:04;9.90;89.30
22379;DHT22;11357;49.990;7.370;2023-04-21T01:27:30;9.90;89.20
22379;DHT22;11357;49.990;7.370;2023-04-21T01:29:56;9.90;89.20
22379;DHT22;11357;49.990;7.370;2023-04-21T01:32:25;9.90;89.20
22379;DHT22;11357;49.990;7.370;2023-04-21T01:34:51;9.90;89.20
22379;DHT22;11357;49.990;7.370;2023-04-21T01:37:20;9.80;89.10
22379;DHT22;11357;49.990;7.370;2023-04-21T01:39:51;9.80;89.20
22379;DHT22;11357;49.990;7.370;2023-04-21T01:42:20;9.70;89.20
22379;DHT22;11357;49.990;7.370;2023-04-21T01:44:46;9.70;89.90
22379;DHT22;11357;49.990;7.370;2023-04-21T01:47:12;9.70;89.20
22379;DHT22;11357;49.990;7.370;2023-04-21T01:49:38;9.60;89.20
22379;DHT22;11357;49.990;7.370;2023-04-21T01:52:03;9.50;89.30
22379;DHT22;11357;49.990;7.370;2023-04-21T01:54:29;9.50;89.50
22379;DHT22;11357;49.990;7.370;2023-04-21T01:56:55;9.40;89.50
22379;DHT22;11357;49.990;7.370;2023-04-21T01:59:22;9.40;89.70
22379;DHT22;11357;49.990;7.370;2023-04-21T02:01:47;9.30;89.70
22379;DHT22;11357;49.990;7.370;2023-04-21T02:04:13;9.30;89.70
22379;DHT22;11357;49.990;7.370;2023-04-21T02:06:39;9.20;89.70
22379;DHT22;11357;49.990;7.370;2023-04-21T02:09:05;9.20;89.70
22379;DHT22;11357;49.990;7.370;2023-04-21T02:11:31;9.10;89.70
22379;DHT22;11357;49.990;7.370;2023-04-21T02:13:56;9.00;89.70
22379;DHT22;11357;49.990;7.370;2023-04-21T02:16:22;9.00;89.70
22379;DHT22;11357;49.990;7.370;2023-04-21T02:18:55;9.00;89.70
22379;DHT22;11357;49.990;7.370;2023-04-21T02:21:30;9.00;89.90
22379;DHT22;11357;49.990;7.370;2023-04-21T02:23:57;9.00;89.90
22379;DHT22;11357;49.990;7.370;2023-04-21T02:26:23;9.00;90.00
22379;DHT22;11357;49.990;7.370;2023-04-21T02:28:49;9.00;90.00
22379;DHT22;11357;49.990;7.370;2023-04-21T02:31:16;9.00;90.00
22379;DHT22;11357;49.990;7.370;2023-04-21T02:33:41;9.00;90.00
22379;DHT22;11357;49.990;7.370;2023-04-21T02:36:07;9.10;90.00
22379;DHT22;11357;49.990;7.370;2023-04-21T02:38:33;9.10;90.00
22379;DHT22;11357;49.990;7.370;2023-04-21T02:40:59;9.10;90.00
22379;DHT22;11357;49.990;7.370;2023-04-21T02:43:24;9.10;89.90
22379;DHT22;11357;49.990;7.370;2023-04-21T02:45:50;9.20;90.00
22379;DHT22;11357;49.990;7.370;2023-04-21T02:48:16;9.10;90.00
22379;DHT22;11357;49.990;7.370;2023-04-21T02:50:50;9.20;90.00
22379;DHT22;11357;49.990;7.370;2023-04-21T02:53:18;9.20;90.00
22379;DHT22;11357;49.990;7.370;2023-04-21T02:55:44;9.30;90.00
22379;DHT22;11357;49.990;7.370;2023-04-21T02:58:09;9.30;90.00
22379;DHT22;11357;49.990;7.370;2023-04-21T03:00:35;9.20;89.90
22379;DHT22;11357;49.990;7.370;2023-04-21T03:03:01;9.30;89.70
22379;DHT22;11357;49.990;7.370;2023-04-21T03:05:27;9.30;89.50
22379;DHT22;11357;49.990;7.370;2023-04-21T03:07:52;9.20;89.40
22379;DHT22;11357;49.990;7.370;2023-04-21T03:10:18;9.10;89.30
22379;DHT22;11357;49.990;7.370;2023-04-21T03:12:44;9.10;89.30
22379;DHT22;11357;49.990;7.370;2023-04-21T03:15:10;9.00;90.00
22379;DHT22;11357;49.990;7.370;2023-04-21T03:17:37;9.00;89.60
22379;DHT22;11357;49.990;7.370;2023-04-21T03:20:03;9.00;90.10
22379;DHT22;11357;49.990;7.370;2023-04-21T03:22:35;9.00;89.70
22379;DHT22;11357;49.990;7.370;2023-04-21T03:25:01;9.00;89.60
22379;DHT22;11357;49.990;7.370;2023-04-21T03:27:27;9.00;89.60
22379;DHT22;11357;49.990;7.370;2023-04-21T03:29:53;9.00;89.60
22379;DHT22;11357;49.990;7.370;2023-04-21T03:32:18;9.00;89.70
22379;DHT22;11357;49.990;7.370;2023-04-21T03:34:44;8.90;89.70
22379;DHT22;11357;49.990;7.370;2023-04-21T03:37:10;8.90;89.80
22379;DHT22;11357;49.990;7.370;2023-04-21T03:39:35;8.90;89.90
22379;DHT22;11357;49.990;7.370;2023-04-21T03:42:01;8.90;90.00
22379;DHT22;11357;49.990;7.370;2023-04-21T03:44:27;8.90;90.00
22379;DHT22;11357;49.990;7.370;2023-04-21T03:46:53;8.90;90.00
22379;DHT22;11357;49.990;7.370;2023-04-21T03:49:19;8.90;90.00
22379;DHT22;11357;49.990;7.370;2023-04-21T03:51:45;8.90;90.00
22379;DHT22;11357;49.990;7.370;2023-04-21T03:54:11;8.90;90.00
22379;DHT22;11357;49.990;7.370;2023-04-21T03:56:37;8.90;90.00
22379;DHT22;11357;49.990;7.370;2023-04-21T03:59:03;8.90;89.90
22379;DHT22;11357;49.990;7.370;2023-04-21T04:01:28;8.90;90.00
22379;DHT22;11357;49.990;7.370;2023-04-21T04:03:54;8.80;89.90
22379;DHT22;11357;49.990;7.370;2023-04-21T04:06:20;8.80;89.90
22379;DHT22;11357;49.990;7.370;2023-04-21T04:08:46;8.80;89.90
22379;DHT22;11357;49.990;7.370;2023-04-21T04:11:11;8.80;89.80
22379;DHT22;11357;49.990;7.370;2023-04-21T04:13:37;8.80;89.80
22379;DHT22;11357;49.990;7.370;2023-04-21T04:16:03;8.70;89.70
22379;DHT22;11357;49.990;7.370;2023-04-21T04:18:28;8.60;89.60
22379;DHT22;11357;49.990;7.370;2023-04-21T04:20:54;8.60;89.60
22379;DHT22;11357;49.990;7.370;2023-04-21T04:23:20;8.50;89.70
22379;DHT22;11357;49.990;7.370;2023-04-21T04:25:46;8.50;89.90
22379;DHT22;11357;49.990;7.370;2023-04-21T04:28:13;8.40;90.00
22379;DHT22;11357;49.990;7.370;2023-04-21T04:30:40;8.40;90.00
22379;DHT22;11357;49.990;7.370;2023-04-21T04:33:06;8.40;90.00
22379;DHT22;11357;49.990;7.370;2023-04-21T04:35:31;8.40;90.00
22379;DHT22;11357;49.990;7.370;2023-04-21T04:37:57;8.40;90.00
22379;DHT22;11357;49.990;7.370;2023-04-21T04:40:24;8.40;90.00
22379;DHT22;11357;49.990;7.370;2023-04-21T04:42:49;8.50;90.00
22379;DHT22;11357;49.990;7.370;2023-04-21T04:45:16;8.40;89.90
22379;DHT22;11357;49.990;7.370;2023-04-21T04:47:42;8.40;89.80
22379;DHT22;11357;49.990;7.370;2023-04-21T04:50:08;8.40;89.80
22379;DHT22;11357;49.990;7.370;2023-04-21T04:52:34;8.50;89.90
22379;DHT22;11357;49.990;7.370;2023-04-21T04:54:59;8.50;90.00
22379;DHT22;11357;49.990;7.370;2023-04-21T04:57:25;8.50;89.90
22379;DHT22;11357;49.990;7.370;2023-04-21T04:59:54;8.50;89.90
22379;DHT22;11357;49.990;7.370;2023-04-21T05:02:20;8.60;89.80
22379;DHT22;11357;49.990;7.370;2023-04-21T05:04:51;8.50;89.50
22379;DHT22;11357;49.990;7.370;2023-04-21T05:07:16;8.60;89.60
22379;DHT22;11357;49.990;7.370;2023-04-21T05:09:42;8.60;89.60
22379;DHT22;11357;49.990;7.370;2023-04-21T05:12:08;8.60;89.60
22379;DHT22;11357;49.990;7.370;2023-04-21T05:14:33;8.60;89.60
22379;DHT22;11357;49.990;7.370;2023-04-21T05:16:59;8.60;89.60
22379;DHT22;11357;49.990;7.370;2023-04-21T05:19:24;8.60;89.60
22379;DHT22;11357;49.990;7.370;2023-04-21T05:21:50;8.60;89.50
22379;DHT22;11357;49.990;7.370;2023-04-21T05:24:16;8.60;89.40
22379;DHT22;11357;49.990;7.370;2023-04-21T05:26:47;8.60;89.50
22379;DHT22;11357;49.990;7.370;2023-04-21T05:29:13;8.60;89.50
22379;DHT22;11357;49.990;7.370;2023-04-21T05:31:39;8.60;89.60
22379;DHT22;11357;49.990;7.370;2023-04-21T05:34:04;8.70;89.70
22379;DHT22;11357;49.990;7.370;2023-04-21T05:36:30;8.80;89.80
22379;DHT22;11357;49.990;7.370;2023-04-21T05:38:56;8.90;89.90
22379;DHT22;11357;49.990;7.370;2023-04-21T05:41:22;9.00;89.80
22379;DHT22;11357;49.990;7.370;2023-04-21T05:43:48;9.10;89.70
22379;DHT22;11357;49.990;7.370;2023-04-21T05:46:14;9.20;89.60
22379;DHT22;11357;49.990;7.370;2023-04-21T05:48:39;9.40;89.50
22379;DHT22;11357;49.990;7.370;2023-04-21T05:51:10;9.50;89.30
22379;DHT22;11357;49.990;7.370;2023-04-21T05:53:37;9.60;89.20
22379;DHT22;11357;49.990;7.370;2023-04-21T05:56:03;9.70;88.90
22379;DHT22;11357;49.990;7.370;2023-04-21T05:58:29;9.80;88.90
22379;DHT22;11357;49.990;7.370;2023-04-21T06:00:55;9.90;88.90
22379;DHT22;11357;49.990;7.370;2023-04-21T06:03:20;10.10;88.80
22379;DHT22;11357;49.990;7.370;2023-04-21T06:05:46;10.10;88.60
22379;DHT22;11357;49.990;7.370;2023-04-21T06:08:12;10.20;88.50
22379;DHT22;11357;49.990;7.370;2023-04-21T06:10:37;10.30;88.40
22379;DHT22;11357;49.990;7.370;2023-04-21T06:13:03;10.40;88.20
22379;DHT22;11357;49.990;7.370;2023-04-21T06:15:28;10.50;88.10
22379;DHT22;11357;49.990;7.370;2023-04-21T06:17:54;10.60;87.90
22379;DHT22;11357;49.990;7.370;2023-04-21T06:20:20;10.70;87.80
22379;DHT22;11357;49.990;7.370;2023-04-21T06:22:45;10.90;87.60
22379;DHT22;11357;49.990;7.370;2023-04-21T06:25:11;11.00;87.30
22379;DHT22;11357;49.990;7.370;2023-04-21T06:27:37;11.20;87.00
22379;DHT22;11357;49.990;7.370;2023-04-21T06:30:02;11.50;86.70
22379;DHT22;11357;49.990;7.370;2023-04-21T06:32:28;11.60;86.30
22379;DHT22;11357;49.990;7.370;2023-04-21T06:34:54;11.80;85.90
22379;DHT22;11357;49.990;7.370;2023-04-21T06:37:19;11.80;85.40
22379;DHT22;11357;49.990;7.370;2023-04-21T06:39:45;12.00;85.10
22379;DHT22;11357;49.990;7.370;2023-04-21T06:42:10;12.10;84.80
22379;DHT22;11357;49.990;7.370;2023-04-21T06:44:36;12.10;84.30
22379;DHT22;11357;49.990;7.370;2023-04-21T06:47:03;12.00;84.20
22379;DHT22;11357;49.990;7.370;2023-04-21T06:49:28;11.90;84.20
22379;DHT22;11357;49.990;7.370;2023-04-21T06:51:55;11.90;84.10
22379;DHT22;11357;49.990;7.370;2023-04-21T06:54:20;11.90;84.10
22379;DHT22;11357;49.990;7.370;2023-04-21T06:56:46;11.80;84.10
22379;DHT22;11357;49.990;7.370;2023-04-21T06:59:12;11.80;84.10
22379;DHT22;11357;49.990;7.370;2023-04-21T07:01:37;11.80;84.20
22379;DHT22;11357;49.990;7.370;2023-04-21T07:04:03;11.70;84.00
22379;DHT22;11357;49.990;7.370;2023-04-21T07:06:30;11.70;84.10
22379;DHT22;11357;49.990;7.370;2023-04-21T07:08:56;11.90;84.20
22379;DHT22;11357;49.990;7.370;2023-04-21T07:11:22;12.10;84.00
22379;DHT22;11357;49.990;7.370;2023-04-21T07:13:47;12.20;83.60
22379;DHT22;11357;49.990;7.370;2023-04-21T07:16:13;12.40;83.50
22379;DHT22;11357;49.990;7.370;2023-04-21T07:18:39;12.60;82.90
22379;DHT22;11357;49.990;7.370;2023-04-21T07:21:06;12.70;82.70
22379;DHT22;11357;49.990;7.370;2023-04-21T07:23:32;12.80;82.40
22379;DHT22;11357;49.990;7.370;2023-04-21T07:25:58;13.00;82.20
22379;DHT22;11357;49.990;7.370;2023-04-21T07:28:24;13.30;82.10
22379;DHT22;11357;49.990;7.370;2023-04-21T07:30:49;13.80;81.30
22379;DHT22;11357;49.990;7.370;2023-04-21T07:33:15;14.00;80.30
22379;DHT22;11357;49.990;7.370;2023-04-21T07:35:41;14.20;79.60
22379;DHT22;11357;49.990;7.370;2023-04-21T07:38:07;14.50;78.80
22379;DHT22;11357;49.990;7.370;2023-04-21T07:40:32;14.80;78.10
22379;DHT22;11357;49.990;7.370;2023-04-21T07:42:58;14.90;77.00
22379;DHT22;11357;49.990;7.370;2023-04-21T07:45:24;14.70;76.60
22379;DHT22;11357;49.990;7.370;2023-04-21T07:47:50;14.60;76.60
22379;DHT22;11357;49.990;7.370;2023-04-21T07:50:16;14.60;76.90
22379;DHT22;11357;49.990;7.370;2023-04-21T07:52:42;14.60;76.80
22379;DHT22;11357;49.990;7.370;2023-04-21T07:55:07;14.70;76.80
22379;DHT22;11357;49.990;7.370;2023-04-21T07:57:33;15.00;76.70
22379;DHT22;11357;49.990;7.370;2023-04-21T08:00:03;15.20;75.80
22379;DHT22;11357;49.990;7.370;2023-04-21T08:02:29;15.20;75.40
22379;DHT22;11357;49.990;7.370;2023-04-21T08:04:55;15.50;75.00
22379;DHT22;11357;49.990;7.370;2023-04-21T08:07:20;15.70;74.60
22379;DHT22;11357;49.990;7.370;2023-04-21T08:09:46;15.80;74.10
22379;DHT22;11357;49.990;7.370;2023-04-21T08:12:12;16.10;74.00
22379;DHT22;11357;49.990;7.370;2023-04-21T08:14:38;16.40;73.10
22379;DHT22;11357;49.990;7.370;2023-04-21T08:17:04;16.70;72.80
22379;DHT22;11357;49.990;7.370;2023-04-21T08:19:29;17.30;72.20
22379;DHT22;11357;49.990;7.370;2023-04-21T08:21:55;17.70;70.40
22379;DHT22;11357;49.990;7.370;2023-04-21T08:24:22;18.00;70.00
22379;DHT22;11357;49.990;7.370;2023-04-21T08:26:47;18.20;68.70
22379;DHT22;11357;49.990;7.370;2023-04-21T08:29:13;18.30;67.20
22379;DHT22;11357;49.990;7.370;2023-04-21T08:31:39;18.00;67.20
22379;DHT22;11357;49.990;7.370;2023-04-21T08:34:04;18.20;67.50
22379;DHT22;11357;49.990;7.370;2023-04-21T08:36:32;18.50;67.00
22379;DHT22;11357;49.990;7.370;2023-04-21T08:38:58;18.80;66.30
22379;DHT22;11357;49.990;7.370;2023-04-21T08:41:24;18.90;64.60
22379;DHT22;11357;49.990;7.370;2023-04-21T08:43:50;18.70;64.20
22379;DHT22;11357;49.990;7.370;2023-04-21T08:46:17;19.00;64.30
22379;DHT22;11357;49.990;7.370;2023-04-21T08:48:45;19.30;63.00
22379;DHT22;11357;49.990;7.370;2023-04-21T08:51:17;19.60;62.20
22379;DHT22;11357;49.990;7.370;2023-04-21T08:53:45;19.80;61.10
22379;DHT22;11357;49.990;7.370;2023-04-21T08:56:10;19.90;59.90
22379;DHT22;11357;49.990;7.370;2023-04-21T08:58:36;20.10;59.70
22379;DHT22;11357;49.990;7.370;2023-04-21T09:01:02;20.20;59.00
22379;DHT22;11357;49.990;7.370;2023-04-21T09:03:28;20.40;58.70
22379;DHT22;11357;49.990;7.370;2023-04-21T09:06:05;20.40;58.40
22379;DHT22;11357;49.990;7.370;2023-04-21T09:08:32;20.60;58.00
22379;DHT22;11357;49.990;7.370;2023-04-21T09:10:59;20.70;57.40
22379;DHT22;11357;49.990;7.370;2023-04-21T09:13:36;20.80;56.80
22379;DHT22;11357;49.990;7.370;2023-04-21T09:16:04;20.70;56.20
22379;DHT22;11357;49.990;7.370;2023-04-21T09:18:31;20.80;56.40
22379;DHT22;11357;49.990;7.370;2023-04-21T09:21:08;21.00;56.20
22379;DHT22;11357;49.990;7.370;2023-04-21T09:23:45;21.00;55.60
22379;DHT22;11357;49.990;7.370;2023-04-21T09:26:11;21.30;55.70
22379;DHT22;11357;49.990;7.370;2023-04-21T09:28:43;21.50;55.00
22379;DHT22;11357;49.990;7.370;2023-04-21T09:31:12;21.60;54.60
22379;DHT22;11357;49.990;7.370;2023-04-21T09:33:46;21.70;54.20
22379;DHT22;11357;49.990;7.370;2023-04-21T09:36:18;21.80;53.80
22379;DHT22;11357;49.990;7.370;2023-04-21T09:41:19;22.00;52.50
22379;DHT22;11357;49.990;7.370;2023-04-21T09:43:44;22.10;52.40
22379;DHT22;11357;49.990;7.370;2023-04-21T09:46:11;22.00;52.50
22379;DHT22;11357;49.990;7.370;2023-04-21T09:48:42;22.00;52.60
22379;DHT22;11357;49.990;7.370;2023-04-21T09:51:12;22.20;52.80
22379;DHT22;11357;49.990;7.370;2023-04-21T09:53:39;22.40;51.70
22379;DHT22;11357;49.990;7.370;2023-04-21T09:56:13;22.70;51.70
22379;DHT22;11357;49.990;7.370;2023-04-21T09:58:53;22.80;50.90
22379;DHT22;11357;49.990;7.370;2023-04-21T10:01:19;23.00;50.40
22379;DHT22;11357;49.990;7.370;2023-04-21T10:03:47;22.90;50.50
22379;DHT22;11357;49.990;7.370;2023-04-21T10:06:13;23.00;50.80
22379;DHT22;11357;49.990;7.370;2023-04-21T10:08:39;23.20;50.80
22379;DHT22;11357;49.990;7.370;2023-04-21T10:11:06;23.40;50.20
22379;DHT22;11357;49.990;7.370;2023-04-21T10:13:32;23.70;49.60
22379;DHT22;11357;49.990;7.370;2023-04-21T10:16:06;23.80;47.80
22379;DHT22;11357;49.990;7.370;2023-04-21T10:18:36;24.10;47.20
22379;DHT22;11357;49.990;7.370;2023-04-21T10:21:07;24.50;47.20
22379;DHT22;11357;49.990;7.370;2023-04-21T10:23:44;25.00;47.00
22379;DHT22;11357;49.990;7.370;2023-04-21T10:26:24;25.10;46.00
22379;DHT22;11357;49.990;7.370;2023-04-21T10:31:30;25.70;45.00
22379;DHT22;11357;49.990;7.370;2023-04-21T10:39:34;25.50;43.70
22379;DHT22;11357;49.990;7.370;2023-04-21T10:49:55;26.30;42.70
22379;DHT22;11357;49.990;7.370;2023-04-21T10:52:30;26.60;42.90
22379;DHT22;11357;49.990;7.370;2023-04-21T10:57:23;27.20;42.10
22379;DHT22;11357;49.990;7.370;2023-04-21T10:59:49;27.40;42.00
22379;DHT22;11357;49.990;7.370;2023-04-21T11:02:17;27.70;41.10
22379;DHT22;11357;49.990;7.370;2023-04-21T11:04:43;27.90;40.40
22379;DHT22;11357;49.990;7.370;2023-04-21T11:07:13;27.90;39.50
22379;DHT22;11357;49.990;7.370;2023-04-21T11:09:41;27.80;39.10
22379;DHT22;11357;49.990;7.370;2023-04-21T11:12:17;27.90;38.80
22379;DHT22;11357;49.990;7.370;2023-04-21T11:14:45;28.00;38.00
22379;DHT22;11357;49.990;7.370;2023-04-21T11:17:17;27.90;37.80
22379;DHT22;11357;49.990;7.370;2023-04-21T11:19:54;28.10;37.50
22379;DHT22;11357;49.990;7.370;2023-04-21T11:22:21;28.40;38.00
22379;DHT22;11357;49.990;7.370;2023-04-21T11:24:50;28.60;37.50
22379;DHT22;11357;49.990;7.370;2023-04-21T11:27:17;28.80;37.40
22379;DHT22;11357;49.990;7.370;2023-04-21T11:29:45;29.30;37.30
22379;DHT22;11357;49.990;7.370;2023-04-21T11:32:11;29.40;37.20
22379;DHT22;11357;49.990;7.370;2023-04-21T11:34:38;30.00;36.90
22379;DHT22;11357;49.990;7.370;2023-04-21T11:37:05;30.40;36.40
22379;DHT22;11357;49.990;7.370;2023-04-21T11:39:31;30.10;35.10
22379;DHT22;11357;49.990;7.370;2023-04-21T11:41:57;29.60;35.00
22379;DHT22;11357;49.990;7.370;2023-04-21T11:44:34;29.40;36.10
22379;DHT22;11357;49.990;7.370;2023-04-21T11:47:10;29.70;36.00
22379;DHT22;11357;49.990;7.370;2023-04-21T11:49:55;29.60;35.80
22379;DHT22;11357;49.990;7.370;2023-04-21T11:52:29;29.20;36.00
22379;DHT22;11357;49.990;7.370;2023-04-21T11:55:02;28.80;36.40
22379;DHT22;11357;49.990;7.370;2023-04-21T11:57:30;28.70;36.80
22379;DHT22;11357;49.990;7.370;2023-04-21T12:00:04;28.90;37.40
22379;DHT22;11357;49.990;7.370;2023-04-21T12:02:32;28.70;36.60
22379;DHT22;11357;49.990;7.370;2023-04-21T12:05:09;28.40;36.30
22379;DHT22;11357;49.990;7.370;2023-04-21T12:07:41;28.50;36.90
22379;DHT22;11357;49.990;7.370;2023-04-21T12:10:12;28.80;36.60
22379;DHT22;11357;49.990;7.370;2023-04-21T12:12:39;29.00;36.00
22379;DHT22;11357;49.990;7.370;2023-04-21T12:15:06;28.30;36.20
22379;DHT22;11357;49.990;7.370;2023-04-21T12:20:07;28.50;37.40
22379;DHT22;11357;49.990;7.370;2023-04-21T12:22:34;28.90;36.90
22379;DHT22;11357;49.990;7.370;2023-04-21T12:24:59;29.20;36.30
22379;DHT22;11357;49.990;7.370;2023-04-21T12:27:26;29.20;36.40
22379;DHT22;11357;49.990;7.370;2023-04-21T12:29:52;29.30;36.40
22379;DHT22;11357;49.990;7.370;2023-04-21T12:32:17;29.50;36.40
22379;DHT22;11357;49.990;7.370;2023-04-21T12:34:43;29.70;36.60
22379;DHT22;11357;49.990;7.370;2023-04-21T12:37:10;29.60;36.30
22379;DHT22;11357;49.990;7.370;2023-04-21T12:39:35;29.20;36.80
22379;DHT22;11357;49.990;7.370;2023-04-21T12:42:01;28.50;37.10
22379;DHT22;11357;49.990;7.370;2023-04-21T12:44:27;27.70;37.50
22379;DHT22;11357;49.990;7.370;2023-04-21T12:46:53;27.70;38.50
22379;DHT22;11357;49.990;7.370;2023-04-21T12:49:19;27.80;38.30
22379;DHT22;11357;49.990;7.370;2023-04-21T12:51:45;27.80;38.70
22379;DHT22;11357;49.990;7.370;2023-04-21T12:54:11;28.00;39.10
22379;DHT22;11357;49.990;7.370;2023-04-21T12:56:37;28.20;39.30
22379;DHT22;11357;49.990;7.370;2023-04-21T12:59:05;28.00;38.70
22379;DHT22;11357;49.990;7.370;2023-04-21T13:01:31;27.90;38.70
22379;DHT22;11357;49.990;7.370;2023-04-21T13:03:57;27.90;39.20
22379;DHT22;11357;49.990;7.370;2023-04-21T13:06:23;27.90;39.20
22379;DHT22;11357;49.990;7.370;2023-04-21T13:08:49;27.80;38.60
22379;DHT22;11357;49.990;7.370;2023-04-21T13:11:15;27.70;39.50
22379;DHT22;11357;49.990;7.370;2023-04-21T13:13:40;27.80;39.30
22379;DHT22;11357;49.990;7.370;2023-04-21T13:16:06;28.20;39.00
22379;DHT22;11357;49.990;7.370;2023-04-21T13:18:32;28.20;39.20
22379;DHT22;11357;49.990;7.370;2023-04-21T13:21:02;28.30;39.10
22379;DHT22;11357;49.990;7.370;2023-04-21T13:23:27;28.50;38.80
22379;DHT22;11357;49.990;7.370;2023-04-21T13:25:53;28.20;39.00
22379;DHT22;11357;49.990;7.370;2023-04-21T13:28:19;27.30;39.30
22379;DHT22;11357;49.990;7.370;2023-04-21T13:30:45;26.60;40.00
22379;DHT22;11357;49.990;7.370;2023-04-21T13:33:11;26.20;40.70
22379;DHT22;11357;49.990;7.370;2023-04-21T13:35:37;26.30;41.40
22379;DHT22;11357;49.990;7.370;2023-04-21T13:38:03;25.90;41.90
22379;DHT22;11357;49.990;7.370;2023-04-21T13:40:28;25.30;42.70
22379;DHT22;11357;49.990;7.370;2023-04-21T13:42:54;24.90;43.60
22379;DHT22;11357;49.990;7.370;2023-04-21T13:45:20;25.10;44.00
22379;DHT22;11357;49.990;7.370;2023-04-21T13:47:45;25.80;44.50
22379;DHT22;11357;49.990;7.370;2023-04-21T13:50:11;26.20;43.80
22379;DHT22;11357;49.990;7.370;2023-04-21T13:52:37;26.50;43.00
22379;DHT22;11357;49.990;7.370;2023-04-21T13:55:02;26.70;42.50
22379;DHT22;11357;49.990;7.370;2023-04-21T13:57:29;26.90;42.50
22379;DHT22;11357;49.990;7.370;2023-04-21T13:59:55;27.20;42.40
22379;DHT22;11357;49.990;7.370;2023-04-21T14:02:21;27.40;42.00
22379;DHT22;11357;49.990;7.370;2023-04-21T14:04:48;27.20;41.50
22379;DHT22;11357;49.990;7.370;2023-04-21T14:07:14;27.10;41.50
22379;DHT22;11357;49.990;7.370;2023-04-21T14:09:42;27.20;41.50
22379;DHT22;11357;49.990;7.370;2023-04-21T14:12:08;27.40;41.50
22379;DHT22;11357;49.990;7.370;2023-04-21T14:14:35;27.20;41.20
22379;DHT22;11357;49.990;7.370;2023-04-21T14:17:01;27.20;41.50
22379;DHT22;11357;49.990;7.370;2023-04-21T14:19:28;27.10;41.30
22379;DHT22;11357;49.990;7.370;2023-04-21T14:21:54;27.10;41.40
22379;DHT22;11357;49.990;7.370;2023-04-21T14:24:19;27.20;41.50
22379;DHT22;11357;49.990;7.370;2023-04-21T14:26:46;27.20;41.60
22379;DHT22;11357;49.990;7.370;2023-04-21T14:29:12;27.20;41.70
22379;DHT22;11357;49.990;7.370;2023-04-21T14:31:37;27.30;41.50
22379;DHT22;11357;49.990;7.370;2023-04-21T14:34:03;27.40;41.10
22379;DHT22;11357;49.990;7.370;2023-04-21T14:36:29;27.20;40.80
22379;DHT22;11357;49.990;7.370;2023-04-21T14:38:55;27.00;41.60
22379;DHT22;11357;49.990;7.370;2023-04-21T14:41:21;27.00;42.10
22379;DHT22;11357;49.990;7.370;2023-04-21T14:43:46;26.90;41.80
22379;DHT22;11357;49.990;7.370;2023-04-21T14:46:12;26.90;41.70
22379;DHT22;11357;49.990;7.370;2023-04-21T14:48:38;26.70;41.70
22379;DHT22;11357;49.990;7.370;2023-04-21T14:51:04;26.50;42.10
22379;DHT22;11357;49.990;7.370;2023-04-21T14:53:33;26.10;42.60
22379;DHT22;11357;49.990;7.370;2023-04-21T14:55:59;25.80;42.80
22379;DHT22;11357;49.990;7.370;2023-04-21T14:58:25;25.60;43.30
22379;DHT22;11357;49.990;7.370;2023-04-21T15:00:51;25.50;43.60
22379;DHT22;11357;49.990;7.370;2023-04-21T15:03:16;25.60;44.30
22379;DHT22;11357;49.990;7.370;2023-04-21T15:05:42;25.60;43.70
22379;DHT22;11357;49.990;7.370;2023-04-21T15:08:07;25.70;44.00
22379;DHT22;11357;49.990;7.370;2023-04-21T15:10:34;25.20;43.80
22379;DHT22;11357;49.990;7.370;2023-04-21T15:13:00;24.90;44.80
22379;DHT22;11357;49.990;7.370;2023-04-21T15:15:26;24.70;44.80
22379;DHT22;11357;49.990;7.370;2023-04-21T15:17:51;24.50;45.20
22379;DHT22;11357;49.990;7.370;2023-04-21T15:20:17;24.40;45.90
22379;DHT22;11357;49.990;7.370;2023-04-21T15:22:43;24.50;45.80
22379;DHT22;11357;49.990;7.370;2023-04-21T15:25:09;24.50;45.60
22379;DHT22;11357;49.990;7.370;2023-04-21T15:27:34;24.40;45.70
22379;DHT22;11357;49.990;7.370;2023-04-21T15:30:01;24.40;45.80
22379;DHT22;11357;49.990;7.370;2023-04-21T15:32:28;24.20;46.00
22379;DHT22;11357;49.990;7.370;2023-04-21T15:34:54;24.20;46.60
22379;DHT22;11357;49.990;7.370;2023-04-21T15:37:20;24.20;46.70
22379;DHT22;11357;49.990;7.370;2023-04-21T15:39:46;24.10;46.80
22379;DHT22;11357;49.990;7.370;2023-04-21T15:42:12;24.00;46.90
22379;DHT22;11357;49.990;7.370;2023-04-21T15:44:38;23.80;47.20
22379;DHT22;11357;49.990;7.370;2023-04-21T15:47:04;23.50;47.60
22379;DHT22;11357;49.990;7.370;2023-04-21T15:49:30;23.20;48.50
22379;DHT22;11357;49.990;7.370;2023-04-21T15:51:56;23.10;48.80
22379;DHT22;11357;49.990;7.370;2023-04-21T15:54:22;23.10;49.20
22379;DHT22;11357;49.990;7.370;2023-04-21T15:56:48;23.20;49.40
22379;DHT22;11357;49.990;7.370;2023-04-21T15:59:14;23.10;49.40